map of YOJ home
YOJ - Airport
Location
City:  High Level, Alberta, Canada
Name:High Level Airport
ICAO:CYOJ
IATA:YOJ

Details
Type:Airport (Airfield)
Use:Public/Civil
Latitude:5837'18"N (58.621667)
Longitude:11709'53"W (-117.164721)
Elevation:1109 ft (338 m)
Variation:17.00E (WMM2015v2 magnetic declination)
-0.15 annual change
Runways:1
Longest:5002 ft (1525 m), paved

Time
Time Zone:UTC-7 (DST-6)
Local Time:

Weather
METAR:CYOJ 041400Z 00000KT 2SM BR SKC M40/M44 A3030 RMK FROIN SLP321
TAF:CYOJ 041238Z 0413/0501 VRB03KT P6SM SKC
BECMG 0417/0419 16008KT
RMK FCST BASED ON AUTO OBS. NXT FCST BY 041900Z

Related Locations
Nearby:
Farthest:YWKS: 10835 mi / 17437 km
Wilkins Runway (Casey), Upper Peterson Glacier, AQ

Find:

   beyond  
but within

Other Information
Maps:
NOTAMs:
Links:
Sources:

  
  • flag of Canada
  • flag of Alberta
  

Airport Diagram

Airport diagram for YOJ

Airport diagram PDF

Sectional Chart

Flight Planning
at skyvector.com

Satellite Image

Google Maps Satellite view

 

Copyright © 2004-2019 Karl L. Swartz. All rights reserved.
The Great Circle Mapper name and logo are trademarks of the Great Circle Mapper.
All other trademarks mentioned herein belong to their respective owners.
Please see credits for attibutions and further copyright information.

  Follow gcmap on Facebook Follow gcmap on Twitter GCmap on LinkedIn

hCard Microformat

Geo Microformat